createdAt,value
2022-08-22T00:00:45.747Z,15.90
2022-08-22T00:02:49.418Z,16.40
2022-08-22T00:03:01.248Z,16.50
2022-08-22T00:03:11.262Z,16.40
2022-08-22T00:03:42.582Z,15.90
2022-08-22T00:06:24.690Z,15.84
2022-08-22T00:09:20.202Z,15.80
2022-08-22T00:12:00.390Z,15.80
2022-08-22T00:14:42.344Z,15.80
2022-08-22T00:17:45.396Z,15.80
2022-08-22T00:20:26.087Z,15.80
2022-08-22T00:23:15.992Z,15.80
2022-08-22T00:26:00.148Z,15.80
2022-08-22T00:28:40.353Z,15.80
2022-08-22T00:31:24.667Z,15.80
2022-08-22T00:34:03.679Z,15.80
2022-08-22T00:36:47.779Z,15.80
2022-08-22T00:39:28.516Z,15.88
2022-08-22T00:42:32.363Z,15.90
2022-08-22T00:46:00.609Z,15.90
2022-08-22T00:49:25.466Z,15.90
2022-08-22T00:52:42.917Z,15.90
2022-08-22T00:55:59.750Z,15.90
2022-08-22T00:59:23.962Z,15.88
2022-08-22T01:02:13.394Z,15.86
2022-08-22T01:05:11.158Z,15.82
2022-08-22T01:08:04.837Z,15.80
2022-08-22T01:10:56.245Z,15.80
2022-08-22T01:13:48.316Z,15.80
2022-08-22T01:16:47.688Z,15.80
2022-08-22T01:20:04.856Z,15.80
2022-08-22T01:23:33.605Z,15.80
2022-08-22T01:27:08.546Z,15.80
2022-08-22T01:30:19.281Z,15.80
2022-08-22T01:33:35.625Z,15.70
2022-08-22T01:36:46.016Z,15.70
2022-08-22T01:39:48.416Z,15.70
2022-08-22T01:43:07.022Z,15.70
2022-08-22T01:46:11.995Z,15.70
2022-08-22T01:48:51.184Z,15.70
2022-08-22T01:51:32.366Z,15.70
2022-08-22T01:54:13.315Z,15.62
2022-08-22T01:56:48.270Z,15.60
2022-08-22T01:59:35.016Z,15.60
2022-08-22T02:02:37.019Z,15.60
2022-08-22T02:05:20.750Z,15.60
2022-08-22T02:08:01.865Z,15.60
2022-08-22T02:10:56.255Z,15.60
2022-08-22T02:13:58.945Z,15.60
2022-08-22T02:16:42.778Z,15.60
2022-08-22T02:19:34.912Z,15.60
2022-08-22T02:22:21.710Z,15.60
2022-08-22T02:25:08.938Z,15.58
2022-08-22T02:27:55.291Z,15.52
2022-08-22T02:30:47.397Z,15.50
2022-08-22T02:33:35.246Z,15.50
2022-08-22T02:36:22.143Z,15.50
2022-08-22T02:39:06.404Z,15.50
2022-08-22T02:41:52.885Z,15.50
2022-08-22T02:44:31.398Z,15.50
2022-08-22T02:47:15.203Z,15.50
2022-08-22T02:49:55.810Z,15.50
2022-08-22T02:52:35.253Z,15.50
2022-08-22T02:55:14.887Z,15.50
2022-08-22T02:57:58.044Z,15.50
2022-08-22T03:00:43.565Z,15.50
2022-08-22T03:03:28.881Z,15.50
2022-08-22T03:06:07.482Z,15.50
2022-08-22T03:09:01.007Z,15.50
2022-08-22T03:11:39.465Z,15.50
2022-08-22T03:14:21.581Z,15.44
2022-08-22T03:17:05.243Z,15.44
2022-08-22T03:20:01.488Z,15.42
2022-08-22T03:22:45.014Z,15.40
2022-08-22T03:25:31.271Z,15.40
2022-08-22T03:28:09.626Z,15.40
2022-08-22T03:30:57.329Z,15.40
2022-08-22T03:33:32.474Z,15.40
2022-08-22T03:36:28.504Z,15.40
2022-08-22T03:39:17.379Z,15.38
2022-08-22T03:42:21.043Z,15.32
2022-08-22T03:45:49.269Z,15.30
2022-08-22T03:48:42.668Z,15.30
2022-08-22T03:51:31.755Z,15.30
2022-08-22T03:54:38.624Z,15.30
2022-08-22T03:58:05.386Z,15.30
2022-08-22T04:01:23.473Z,15.30
2022-08-22T04:04:48.784Z,15.30
2022-08-22T04:07:47.246Z,15.30
2022-08-22T04:11:02.453Z,15.30
2022-08-22T04:14:13.485Z,15.30
2022-08-22T04:17:20.328Z,15.30
2022-08-22T04:20:26.632Z,15.30
2022-08-22T04:23:28.700Z,15.28
2022-08-22T04:26:12.539Z,15.20
2022-08-22T04:28:53.950Z,15.20
2022-08-22T04:31:34.985Z,15.20
2022-08-22T04:34:17.254Z,15.20
2022-08-22T04:36:56.644Z,15.20
2022-08-22T04:39:39.928Z,15.20
2022-08-22T04:42:34.097Z,15.20
2022-08-22T04:45:15.594Z,15.20
2022-08-22T04:47:55.331Z,15.20
2022-08-22T04:50:35.051Z,15.20
2022-08-22T04:53:34.334Z,15.28
2022-08-22T04:56:17.006Z,15.30
2022-08-22T04:59:00.649Z,15.30
2022-08-22T05:01:46.933Z,15.30
2022-08-22T05:04:25.361Z,15.30
2022-08-22T05:07:08.042Z,15.30
2022-08-22T05:09:49.568Z,15.30
2022-08-22T05:12:30.126Z,15.30
2022-08-22T05:15:11.044Z,15.30
2022-08-22T05:17:47.472Z,15.30
2022-08-22T05:20:26.839Z,15.30
2022-08-22T05:23:05.992Z,15.40
2022-08-22T05:25:54.532Z,15.40
2022-08-22T05:28:38.597Z,15.40
2022-08-22T05:31:23.259Z,15.40
2022-08-22T05:34:02.466Z,15.40
2022-08-22T05:36:40.178Z,15.40
2022-08-22T05:39:18.986Z,15.40
2022-08-22T05:41:55.390Z,15.40
2022-08-22T05:44:33.375Z,15.40
2022-08-22T05:47:18.018Z,15.44
2022-08-22T05:50:00.228Z,15.48
2022-08-22T05:52:53.019Z,15.50
2022-08-22T05:55:32.724Z,15.50
2022-08-22T05:58:29.476Z,15.50
2022-08-22T06:01:18.056Z,15.50
2022-08-22T06:04:02.570Z,15.50
2022-08-22T06:06:39.308Z,15.60
2022-08-22T06:09:19.397Z,15.60
2022-08-22T06:12:02.329Z,15.60
2022-08-22T06:14:45.396Z,15.62
2022-08-22T06:17:23.056Z,15.60
2022-08-22T06:19:57.293Z,15.60
2022-08-22T06:22:34.279Z,15.60
2022-08-22T06:25:15.562Z,15.60
2022-08-22T06:27:50.957Z,15.60
2022-08-22T06:30:26.775Z,15.60
2022-08-22T06:33:04.774Z,15.60
2022-08-22T06:35:59.822Z,15.60
2022-08-22T06:38:52.827Z,15.60
2022-08-22T06:41:29.830Z,15.60
2022-08-22T06:44:06.035Z,15.54
2022-08-22T06:46:41.809Z,15.50
2022-08-22T06:49:15.895Z,15.50
2022-08-22T06:51:49.964Z,15.50
2022-08-22T06:54:30.357Z,15.50
2022-08-22T06:57:07.627Z,15.50
2022-08-22T06:59:44.085Z,15.60
2022-08-22T07:02:27.746Z,15.60
2022-08-22T07:05:00.954Z,15.70
2022-08-22T07:07:38.908Z,15.70
2022-08-22T07:10:14.359Z,15.80
2022-08-22T07:12:52.824Z,15.80
2022-08-22T07:15:35.691Z,15.80
2022-08-22T07:18:17.158Z,15.80
2022-08-22T07:20:55.381Z,15.72
2022-08-22T07:23:38.698Z,15.72
2022-08-22T07:26:26.191Z,15.78
2022-08-22T07:29:10.714Z,15.80
2022-08-22T07:31:52.527Z,15.80
2022-08-22T07:34:44.890Z,15.80
2022-08-22T07:37:29.727Z,15.80
2022-08-22T07:40:14.387Z,15.90
2022-08-22T07:42:53.649Z,15.90
2022-08-22T07:45:36.937Z,16.00
2022-08-22T07:48:26.017Z,16.00
2022-08-22T07:51:12.543Z,16.00
2022-08-22T07:53:50.735Z,16.00
2022-08-22T07:56:31.089Z,16.10
2022-08-22T07:59:12.709Z,16.10
2022-08-22T08:01:51.453Z,16.10
2022-08-22T08:04:29.814Z,16.10
2022-08-22T08:07:08.410Z,16.10
2022-08-22T08:09:46.147Z,16.14
2022-08-22T08:12:21.071Z,16.20
2022-08-22T08:14:56.919Z,16.20
2022-08-22T08:17:33.587Z,16.20
2022-08-22T08:20:11.463Z,16.20
2022-08-22T08:22:48.028Z,16.30
2022-08-22T08:25:25.143Z,16.32
2022-08-22T08:28:18.848Z,16.40
2022-08-22T08:31:00.197Z,16.42
2022-08-22T08:33:36.416Z,16.50
2022-08-22T08:36:19.361Z,16.50
2022-08-22T08:39:00.401Z,16.60
2022-08-22T08:42:01.837Z,16.60
2022-08-22T08:45:08.602Z,16.70
2022-08-22T08:47:57.575Z,16.70
2022-08-22T08:50:50.609Z,16.70
2022-08-22T08:53:48.834Z,16.70
2022-08-22T08:56:36.795Z,16.80
2022-08-22T08:59:27.303Z,16.82
2022-08-22T09:05:36.211Z,17.00
2022-08-22T09:09:05.211Z,17.00
2022-08-22T09:12:30.055Z,17.10
2022-08-22T09:15:21.749Z,17.16
2022-08-22T09:18:50.608Z,17.20
2022-08-22T09:22:18.402Z,17.30
2022-08-22T09:25:25.370Z,17.40
2022-08-22T09:28:06.019Z,17.40
2022-08-22T09:30:58.777Z,17.40
2022-08-22T09:33:41.667Z,17.50
2022-08-22T09:36:22.561Z,17.50
2022-08-22T09:39:05.893Z,17.50
2022-08-22T09:41:51.657Z,17.50
2022-08-22T09:44:51.307Z,17.40
2022-08-22T09:47:32.861Z,17.40
2022-08-22T09:50:14.709Z,17.40
2022-08-22T09:53:11.802Z,17.40
2022-08-22T09:55:54.473Z,17.40
2022-08-22T09:58:40.826Z,17.46
2022-08-22T10:01:27.398Z,17.52
2022-08-22T10:04:46.157Z,17.60
2022-08-22T10:07:47.042Z,17.70
2022-08-22T10:10:55.844Z,17.86
2022-08-22T10:13:44.699Z,17.90
2022-08-22T10:16:34.319Z,18.00
2022-08-22T10:19:18.818Z,17.90
2022-08-22T10:22:22.373Z,17.90
2022-08-22T10:25:25.974Z,17.90
2022-08-22T10:28:21.495Z,17.90
2022-08-22T10:31:19.984Z,17.82
2022-08-22T10:34:04.580Z,17.82
2022-08-22T10:36:49.055Z,17.80
2022-08-22T10:39:38.298Z,17.80
2022-08-22T10:42:34.945Z,17.70
2022-08-22T10:45:36.126Z,17.70
2022-08-22T10:48:49.463Z,17.70
2022-08-22T10:51:37.214Z,17.70
2022-08-22T10:54:52.906Z,17.68
2022-08-22T10:57:45.873Z,17.70
2022-08-22T11:00:50.152Z,17.70
2022-08-22T11:03:29.755Z,17.70
2022-08-22T11:06:08.205Z,17.70
2022-08-22T11:09:27.998Z,17.70
2022-08-22T11:12:12.965Z,17.60
2022-08-22T11:15:14.481Z,17.60
2022-08-22T11:18:24.599Z,17.60
2022-08-22T11:21:07.304Z,17.60
2022-08-22T11:23:52.891Z,17.64
2022-08-22T11:26:47.388Z,17.62
2022-08-22T11:29:43.495Z,17.60
2022-08-22T11:32:27.049Z,17.64
2022-08-22T11:35:09.355Z,17.70
2022-08-22T11:37:56.276Z,17.70
2022-08-22T11:40:46.204Z,17.76
2022-08-22T11:43:47.603Z,17.80
2022-08-22T11:46:30.840Z,17.80
2022-08-22T11:49:47.908Z,17.88
2022-08-22T11:52:54.551Z,17.92
2022-08-22T11:55:37.096Z,18.00
2022-08-22T11:58:29.233Z,18.10
2022-08-22T12:01:18.449Z,18.10
2022-08-22T12:04:10.580Z,18.18
2022-08-22T12:07:12.101Z,18.20
2022-08-22T12:09:55.946Z,18.30
2022-08-22T12:13:01.551Z,18.40
2022-08-22T12:15:47.476Z,18.44
2022-08-22T12:18:53.016Z,18.50
2022-08-22T12:22:35.000Z,18.50
2022-08-22T12:25:23.122Z,18.60
2022-08-22T12:28:15.768Z,18.60
2022-08-22T12:31:02.404Z,18.60
2022-08-22T12:34:02.704Z,18.60
2022-08-22T12:37:03.238Z,18.60
2022-08-22T12:40:33.202Z,18.60
2022-08-22T12:43:33.244Z,18.60
2022-08-22T12:46:28.303Z,18.60
2022-08-22T12:49:39.486Z,18.70
2022-08-22T12:52:26.060Z,18.70
2022-08-22T12:55:19.248Z,18.70
2022-08-22T12:58:04.060Z,18.70
2022-08-22T13:00:41.513Z,18.70
2022-08-22T13:03:29.711Z,18.70
2022-08-22T13:06:27.291Z,18.70
2022-08-22T13:09:00.968Z,18.70
2022-08-22T13:11:40.960Z,18.80
2022-08-22T13:14:19.062Z,18.80
2022-08-22T13:17:01.114Z,18.82
2022-08-22T13:20:00.843Z,18.80
2022-08-22T13:22:36.693Z,18.80
2022-08-22T13:25:25.672Z,18.80
2022-08-22T13:28:02.545Z,18.80
2022-08-22T13:30:40.146Z,18.76
2022-08-22T13:33:27.783Z,18.70
2022-08-22T13:36:06.800Z,18.70
2022-08-22T13:38:52.193Z,18.70
2022-08-22T13:41:29.635Z,18.70
2022-08-22T13:44:26.689Z,18.68
2022-08-22T13:47:14.272Z,18.60
2022-08-22T13:49:51.492Z,18.60
2022-08-22T13:52:32.930Z,18.60
2022-08-22T13:55:17.993Z,18.60
2022-08-22T13:57:55.288Z,18.60
2022-08-22T14:01:16.453Z,18.62
2022-08-22T14:03:57.547Z,18.66
2022-08-22T14:06:43.912Z,18.66
2022-08-22T14:09:32.851Z,18.70
2022-08-22T14:12:15.159Z,18.80
2022-08-22T14:14:56.522Z,18.90
2022-08-22T14:17:38.480Z,19.00
2022-08-22T14:20:33.825Z,19.00
2022-08-22T14:23:11.916Z,19.00
2022-08-22T14:25:47.182Z,19.00
2022-08-22T14:28:31.871Z,18.90
2022-08-22T14:31:13.521Z,18.90
2022-08-22T14:33:52.464Z,18.90
2022-08-22T14:36:30.747Z,18.80
2022-08-22T14:39:12.253Z,18.80
2022-08-22T14:41:57.038Z,18.80
2022-08-22T14:44:43.520Z,18.90
2022-08-22T14:47:48.194Z,18.90
2022-08-22T14:50:50.639Z,18.90
2022-08-22T14:53:31.943Z,18.90
2022-08-22T14:56:10.958Z,18.80
2022-08-22T14:58:55.522Z,18.80
2022-08-22T15:01:35.508Z,18.80
2022-08-22T15:04:18.921Z,18.76
2022-08-22T15:06:58.818Z,18.70
2022-08-22T15:09:37.121Z,18.70
2022-08-22T15:12:29.416Z,18.70
2022-08-22T15:15:09.439Z,18.60
2022-08-22T15:17:50.965Z,18.60
2022-08-22T15:20:38.234Z,18.60
2022-08-22T15:23:25.291Z,18.60
2022-08-22T15:26:06.496Z,18.60
2022-08-22T15:28:53.059Z,18.60
2022-08-22T15:31:26.874Z,18.60
2022-08-22T15:34:13.213Z,18.60
2022-08-22T15:40:11.894Z,18.60
2022-08-22T15:42:50.250Z,18.60
2022-08-22T15:45:37.733Z,18.60
2022-08-22T15:48:26.288Z,18.60
2022-08-22T15:51:09.371Z,18.56
2022-08-22T15:56:42.908Z,18.50
2022-08-22T15:59:54.071Z,18.50
2022-08-22T16:02:35.367Z,18.50
2022-08-22T16:05:30.902Z,18.42
2022-08-22T16:08:11.261Z,18.42
2022-08-22T16:10:47.286Z,18.40
2022-08-22T16:13:43.831Z,18.40
2022-08-22T16:16:49.072Z,18.40
2022-08-22T16:19:25.648Z,18.40
2022-08-22T16:22:16.283Z,18.40
2022-08-22T16:25:11.558Z,18.40
2022-08-22T16:28:01.514Z,18.40
2022-08-22T16:30:41.005Z,18.40
2022-08-22T16:33:28.919Z,18.40
2022-08-22T16:36:47.377Z,18.40
2022-08-22T16:39:42.990Z,18.42
2022-08-22T16:42:38.309Z,18.50
2022-08-22T16:45:34.312Z,18.50
2022-08-22T16:48:27.899Z,18.50
2022-08-22T16:51:18.816Z,18.50
2022-08-22T16:54:12.397Z,18.50
2022-08-22T16:57:07.836Z,18.50
2022-08-22T17:00:08.282Z,18.50
2022-08-22T17:02:54.418Z,18.50
2022-08-22T17:05:44.945Z,18.48
2022-08-22T17:08:43.797Z,18.40
2022-08-22T17:11:35.281Z,18.40
2022-08-22T17:14:34.848Z,18.40
2022-08-22T17:17:26.153Z,18.40
2022-08-22T17:20:14.320Z,18.40
2022-08-22T17:23:08.281Z,18.40
2022-08-22T17:25:55.965Z,18.40
2022-08-22T17:28:41.684Z,18.30
2022-08-22T17:31:25.876Z,18.30
2022-08-22T17:34:29.255Z,18.30
2022-08-22T17:37:13.274Z,18.30
2022-08-22T17:40:11.405Z,18.30
2022-08-22T17:43:10.454Z,18.30
2022-08-22T17:46:00.841Z,18.30
2022-08-22T17:48:40.230Z,18.30
2022-08-22T17:51:28.830Z,18.30
2022-08-22T17:54:13.720Z,18.30
2022-08-22T17:57:00.445Z,18.30
2022-08-22T17:59:50.141Z,18.30
2022-08-22T18:02:29.994Z,18.28
2022-08-22T18:05:11.618Z,18.20
2022-08-22T18:08:37.554Z,18.20
2022-08-22T18:11:10.317Z,18.20
2022-08-22T18:13:59.636Z,18.18
2022-08-22T18:16:47.746Z,18.10
2022-08-22T18:19:39.789Z,18.10
2022-08-22T18:22:22.334Z,18.10
2022-08-22T18:25:02.147Z,18.06
2022-08-22T18:27:41.319Z,18.00
2022-08-22T18:30:25.136Z,18.00
2022-08-22T18:33:04.468Z,18.00
2022-08-22T18:35:53.814Z,18.00
2022-08-22T18:38:36.018Z,18.00
2022-08-22T18:41:21.819Z,18.00
2022-08-22T18:43:58.934Z,17.92
2022-08-22T18:46:51.694Z,17.90
2022-08-22T18:49:54.631Z,17.90
2022-08-22T18:52:44.462Z,17.90
2022-08-22T18:55:51.129Z,17.90
2022-08-22T18:58:49.430Z,17.90
2022-08-22T19:01:53.744Z,17.90
2022-08-22T19:05:04.559Z,17.90
2022-08-22T19:08:04.725Z,17.90
2022-08-22T19:10:55.301Z,17.90
2022-08-22T19:14:09.072Z,17.90
2022-08-22T19:17:04.978Z,17.90
2022-08-22T19:20:13.788Z,17.90
2022-08-22T19:22:51.135Z,17.92
2022-08-22T19:25:28.197Z,17.90
2022-08-22T19:28:35.952Z,17.90
2022-08-22T19:31:44.529Z,17.90
2022-08-22T19:34:47.782Z,17.90
2022-08-22T19:37:33.516Z,17.90
2022-08-22T19:40:11.385Z,17.90
2022-08-22T19:42:50.382Z,17.90
2022-08-22T19:45:29.374Z,17.90
2022-08-22T19:48:14.218Z,17.90
2022-08-22T19:50:47.368Z,17.90
2022-08-22T19:53:41.843Z,17.90
2022-08-22T19:56:38.604Z,17.90
2022-08-22T19:59:24.134Z,17.90
2022-08-22T20:02:17.464Z,17.82
2022-08-22T20:05:22.342Z,17.82
2022-08-22T20:08:31.450Z,17.80
2022-08-22T20:11:20.715Z,17.80
2022-08-22T20:14:10.522Z,17.80
2022-08-22T20:17:10.385Z,17.80
2022-08-22T20:22:52.755Z,17.80
2022-08-22T20:25:42.861Z,17.80
2022-08-22T20:28:47.220Z,17.80
2022-08-22T20:31:27.678Z,17.80
2022-08-22T20:34:03.420Z,17.80
2022-08-22T20:36:36.741Z,17.80
2022-08-22T20:39:16.322Z,17.80
2022-08-22T20:41:56.488Z,17.80
2022-08-22T20:44:39.244Z,17.80
2022-08-22T20:47:21.380Z,17.80
2022-08-22T20:49:57.452Z,17.80
2022-08-22T20:52:35.481Z,17.80
2022-08-22T20:55:16.331Z,17.80
2022-08-22T20:57:57.399Z,17.78
2022-08-22T21:00:35.354Z,17.80
2022-08-22T21:03:14.910Z,17.80
2022-08-22T21:05:48.928Z,17.78
2022-08-22T21:08:26.342Z,17.78
2022-08-22T21:11:23.044Z,17.76
2022-08-22T21:13:56.455Z,17.78
2022-08-22T21:16:34.606Z,17.76
2022-08-22T21:19:20.737Z,17.74
2022-08-22T21:21:54.244Z,17.70
2022-08-22T21:24:27.134Z,17.72
2022-08-22T21:27:03.705Z,17.70
2022-08-22T21:29:47.898Z,17.72
2022-08-22T21:32:35.543Z,17.72
2022-08-22T21:35:25.879Z,17.78
2022-08-22T21:38:00.530Z,17.72
2022-08-22T21:40:39.695Z,17.70
2022-08-22T21:43:28.639Z,17.74
2022-08-22T21:46:01.886Z,17.76
2022-08-22T21:48:43.931Z,17.80
2022-08-22T21:51:46.777Z,17.80
2022-08-22T21:54:48.123Z,17.80
2022-08-22T21:57:37.084Z,17.80
2022-08-22T22:00:48.951Z,17.80
2022-08-22T22:03:26.834Z,17.80
2022-08-22T22:06:03.615Z,17.80
2022-08-22T22:08:37.025Z,17.80
2022-08-22T22:11:14.953Z,17.80
2022-08-22T22:13:47.801Z,17.80
2022-08-22T22:16:25.233Z,17.80
2022-08-22T22:18:58.533Z,17.80
2022-08-22T22:21:31.588Z,17.80
2022-08-22T22:24:05.032Z,17.80
2022-08-22T22:26:38.029Z,17.80
2022-08-22T22:29:11.227Z,17.80
2022-08-22T22:31:44.077Z,17.80
2022-08-22T22:34:18.595Z,17.80
2022-08-22T22:36:51.787Z,17.80
2022-08-22T22:39:24.740Z,17.80
2022-08-22T22:41:57.862Z,17.80
2022-08-22T22:44:30.672Z,17.80
2022-08-22T22:47:05.375Z,17.80
2022-08-22T22:49:40.547Z,17.80
2022-08-22T22:52:13.564Z,17.80
2022-08-22T22:54:46.384Z,17.80
2022-08-22T22:57:25.535Z,17.86
2022-08-22T22:59:58.733Z,17.90
2022-08-22T23:02:31.827Z,17.90
2022-08-22T23:05:05.027Z,17.90
2022-08-22T23:07:38.508Z,17.90
2022-08-22T23:10:13.464Z,17.90
2022-08-22T23:12:46.201Z,17.90
2022-08-22T23:15:19.287Z,17.90
2022-08-22T23:17:52.478Z,17.90
2022-08-22T23:20:25.571Z,17.90
2022-08-22T23:22:59.885Z,17.90
2022-08-22T23:25:32.987Z,17.90
2022-08-22T23:28:06.601Z,17.90
2022-08-22T23:30:39.359Z,17.90
2022-08-22T23:33:12.225Z,17.90
2022-08-22T23:35:45.434Z,17.90
2022-08-22T23:38:18.413Z,17.90
2022-08-22T23:40:53.760Z,17.90
2022-08-22T23:43:26.589Z,17.90
2022-08-22T23:45:59.429Z,17.90
2022-08-22T23:48:32.542Z,17.90
2022-08-22T23:51:05.647Z,17.90
2022-08-22T23:53:39.297Z,17.90
2022-08-22T23:56:19.098Z,17.90
2022-08-22T23:58:53.484Z,17.90
